Time;durP1;ratioP1;P1;durP2;ratioP2;P2;SDS_P1;SDS_P2;PMS_P1;PMS_P2;Temp;Humidity;BMP_temperature;BMP_pressure;BME280_temperature;BME280_humidity;BME280_pressure;Samples;Min_cycle;Max_cycle;Signal;HPM_P1;HPM_P2
2022/11/17 00:00:41;;;;;;;8.30;6.37;;;1.80;99.90;;;;;;5088470;28;20208;-66
2022/11/17 00:03:08;;;;;;;7.90;6.27;;;1.80;99.90;;;;;;5088993;28;20219;-65
2022/11/17 00:05:35;;;;;;;8.60;6.73;;;1.80;99.90;;;;;;5088853;28;20273;-65
2022/11/17 00:08:02;;;;;;;8.40;6.30;;;1.80;99.90;;;;;;5089236;28;20549;-65
2022/11/17 00:10:29;;;;;;;8.57;7.07;;;1.80;99.90;;;;;;5088771;28;20200;-65
2022/11/17 00:15:47;;;;;;;8.60;7.17;;;1.80;99.90;;;;;;5049388;28;20193;-65
2022/11/17 00:23:48;;;;;;;8.27;6.63;;;1.70;99.90;;;;;;5088569;28;20188;-66
2022/11/17 00:26:16;;;;;;;10.30;7.97;;;1.80;99.90;;;;;;5088631;28;20192;-66
2022/11/17 00:28:43;;;;;;;9.63;7.53;;;1.70;99.90;;;;;;5087968;28;20294;-66
2022/11/17 00:34:05;;;;;;;10.17;8.13;;;1.70;99.90;;;;;;5088957;28;20192;-66
2022/11/17 00:36:37;;;;;;;11.33;8.53;;;1.70;99.90;;;;;;5089116;28;20188;-66
2022/11/17 00:39:04;;;;;;;11.90;9.37;;;1.70;99.90;;;;;;5088727;28;20626;-67
2022/11/17 00:41:31;;;;;;;10.10;8.60;;;1.60;99.90;;;;;;5088288;28;20236;-67
2022/11/17 00:43:58;;;;;;;11.90;9.10;;;1.60;99.90;;;;;;5075571;28;20213;-66
2022/11/17 00:46:27;;;;;;;11.63;8.73;;;1.60;99.90;;;;;;5075266;28;20211;-65
2022/11/17 00:48:53;;;;;;;11.50;8.87;;;1.60;99.90;;;;;;5075308;28;20215;-65
2022/11/17 00:51:20;;;;;;;12.37;9.40;;;1.60;99.90;;;;;;5075296;28;20197;-65
2022/11/17 00:53:48;;;;;;;12.30;9.53;;;1.60;99.90;;;;;;5074301;28;20239;-67
2022/11/17 00:56:15;;;;;;;13.13;9.60;;;1.60;99.90;;;;;;5074611;28;20574;-65
2022/11/17 00:58:42;;;;;;;11.97;8.90;;;1.60;99.90;;;;;;5074568;28;20211;-66
2022/11/17 01:01:08;;;;;;;11.40;9.30;;;1.50;99.90;;;;;;5074397;28;20217;-66
2022/11/17 01:03:37;;;;;;;13.47;10.00;;;1.50;99.90;;;;;;5074486;28;20200;-65
2022/11/17 01:06:05;;;;;;;12.17;9.83;;;1.60;99.90;;;;;;5074823;28;20258;-65
2022/11/17 01:08:33;;;;;;;12.80;10.23;;;1.60;99.90;;;;;;5074459;28;20333;-66
2022/11/17 01:11:05;;;;;;;15.27;11.30;;;1.50;99.90;;;;;;5074369;28;20205;-66
2022/11/17 01:13:32;;;;;;;15.73;11.50;;;1.50;99.90;;;;;;5074010;28;20197;-66
2022/11/17 01:16:02;;;;;;;14.47;10.70;;;1.50;99.90;;;;;;5069678;28;20227;-66
2022/11/17 01:18:29;;;;;;;16.40;11.80;;;1.50;99.90;;;;;;5054863;28;20222;-65
2022/11/17 01:21:04;;;;;;;15.87;12.20;;;1.50;99.90;;;;;;5065621;28;20211;-66
2022/11/17 01:23:31;;;;;;;17.60;12.67;;;1.50;99.90;;;;;;5072532;28;20605;-66
2022/11/17 01:26:02;;;;;;;16.93;12.57;;;1.60;99.90;;;;;;5067993;28;20223;-66
2022/11/17 01:28:29;;;;;;;17.50;12.10;;;1.50;99.90;;;;;;5053928;28;20200;-67
2022/11/17 01:30:59;;;;;;;15.77;12.60;;;1.50;99.90;;;;;;5054113;28;20212;-66
2022/11/17 01:33:26;;;;;;;17.17;13.73;;;1.50;99.90;;;;;;5054085;28;20536;-66
2022/11/17 01:35:53;;;;;;;18.03;13.43;;;1.50;99.90;;;;;;5054394;28;20587;-65
2022/11/17 01:38:21;;;;;;;18.83;13.50;;;1.50;99.90;;;;;;5072635;28;20216;-66
2022/11/17 01:40:48;;;;;;;15.90;12.23;;;1.40;99.90;;;;;;5073582;28;20213;-66
2022/11/17 01:43:15;;;;;;;15.17;12.00;;;1.50;99.90;;;;;;5073641;28;20238;-66
2022/11/17 01:45:42;;;;;;;16.77;13.43;;;1.50;99.90;;;;;;5073757;28;20205;-67
2022/11/17 01:48:11;;;;;;;15.23;12.10;;;1.50;99.90;;;;;;5056663;28;20210;-65
2022/11/17 01:50:40;;;;;;;16.07;12.47;;;1.40;99.90;;;;;;5053442;28;20232;-66
2022/11/17 01:53:09;;;;;;;15.40;12.47;;;1.40;99.90;;;;;;5053769;28;20197;-66
2022/11/17 01:55:43;;;;;;;14.87;12.00;;;1.40;99.90;;;;;;5052564;28;20206;-66
2022/11/17 01:58:13;;;;;;;14.47;11.67;;;1.40;99.90;;;;;;5053307;28;20198;-65
2022/11/17 02:00:41;;;;;;;17.23;12.43;;;1.40;99.90;;;;;;5053663;28;20194;-66
2022/11/17 02:03:08;;;;;;;16.20;12.67;;;1.40;99.90;;;;;;5053578;28;20225;-66
2022/11/17 02:05:41;;;;;;;16.03;12.57;;;1.30;99.90;;;;;;5053499;28;20201;-65
2022/11/17 02:08:09;;;;;;;16.50;13.07;;;1.30;99.90;;;;;;5052877;28;20256;-66
2022/11/17 02:10:38;;;;;;;15.97;12.63;;;1.30;99.90;;;;;;5053085;28;20221;-65
2022/11/17 02:13:06;;;;;;;17.23;13.00;;;1.30;99.90;;;;;;5052903;28;20205;-67
2022/11/17 02:15:33;;;;;;;18.23;13.83;;;1.30;99.90;;;;;;5052129;28;20216;-65
2022/11/17 02:18:01;;;;;;;16.63;12.87;;;1.30;99.90;;;;;;5053279;28;20688;-66
2022/11/17 02:20:50;;;;;;;16.67;12.90;;;1.30;99.90;;;;;;5053000;28;20201;-65
2022/11/17 02:24:04;;;;;;;17.73;13.13;;;1.30;99.90;;;;;;5052346;28;20213;-68
2022/11/17 02:27:11;;;;;;;16.43;12.77;;;1.30;99.90;;;;;;4991214;28;20196;-66
2022/11/17 02:29:48;;;;;;;17.83;13.47;;;1.30;99.90;;;;;;4991145;28;20203;-66
2022/11/17 02:32:23;;;;;;;16.70;13.07;;;1.30;99.90;;;;;;5008314;28;20297;-65
2022/11/17 02:34:56;;;;;;;15.53;12.67;;;1.30;99.90;;;;;;5009872;28;20557;-65
2022/11/17 02:37:31;;;;;;;15.30;12.53;;;1.20;99.90;;;;;;5010492;28;20298;-65
2022/11/17 02:40:02;;;;;;;16.40;12.60;;;1.20;99.90;;;;;;5010759;28;20201;-66
2022/11/17 02:45:25;;;;;;;17.50;13.40;;;1.20;99.90;;;;;;5009046;28;20205;-66
2022/11/17 02:47:55;;;;;;;16.23;12.90;;;1.20;99.90;;;;;;5010738;28;20198;-66
2022/11/17 02:50:26;;;;;;;15.90;12.60;;;1.20;99.90;;;;;;5010270;28;20210;-65
2022/11/17 02:52:53;;;;;;;16.30;12.37;;;1.20;99.90;;;;;;5009471;28;20210;-65
2022/11/17 02:55:20;;;;;;;16.53;12.63;;;1.20;99.90;;;;;;5010142;28;20802;-66
2022/11/17 02:57:48;;;;;;;16.57;13.37;;;1.20;99.90;;;;;;5056015;28;20218;-66
2022/11/17 03:00:18;;;;;;;17.67;13.73;;;1.20;99.90;;;;;;5071793;28;20331;-66
2022/11/17 03:03:15;;;;;;;18.77;14.87;;;1.20;99.90;;;;;;5070177;28;20228;-66
2022/11/17 03:05:53;;;;;;;20.70;15.90;;;1.20;99.90;;;;;;5072164;28;20232;-66
2022/11/17 03:08:30;;;;;;;18.73;14.33;;;1.20;99.90;;;;;;5072319;28;20196;-66
2022/11/17 03:10:59;;;;;;;17.40;13.87;;;1.20;99.90;;;;;;5070344;28;20199;-66
2022/11/17 03:13:33;;;;;;;17.83;14.07;;;1.20;99.90;;;;;;5051455;28;20204;-66
2022/11/17 03:16:13;;;;;;;17.20;13.33;;;1.20;99.90;;;;;;5052261;28;20199;-67
2022/11/17 03:18:54;;;;;;;18.17;13.67;;;1.20;99.90;;;;;;5052284;28;20649;-66
2022/11/17 03:21:27;;;;;;;18.07;13.47;;;1.20;99.90;;;;;;5053580;28;20211;-66
2022/11/17 03:24:02;;;;;;;20.00;14.63;;;1.10;99.90;;;;;;5071984;28;20193;-66
2022/11/17 03:26:33;;;;;;;17.23;13.03;;;1.10;99.90;;;;;;5071960;28;20685;-66
2022/11/17 03:29:04;;;;;;;20.53;15.13;;;1.10;99.90;;;;;;5072239;28;20188;-67
2022/11/17 03:31:33;;;;;;;21.17;15.60;;;1.20;99.90;;;;;;5065901;28;20200;-69
2022/11/17 03:34:05;;;;;;;19.30;14.90;;;1.10;99.90;;;;;;5052233;28;20563;-67
2022/11/17 03:36:35;;;;;;;20.70;14.60;;;1.00;99.90;;;;;;5052332;28;20216;-66
2022/11/17 03:39:08;;;;;;;20.50;14.87;;;1.00;99.90;;;;;;5052151;28;20201;-66
2022/11/17 03:41:39;;;;;;;20.93;15.00;;;1.00;99.90;;;;;;5056418;28;20243;-64
2022/11/17 03:44:07;;;;;;;20.10;14.87;;;1.00;99.90;;;;;;5071222;28;20208;-66
2022/11/17 03:46:36;;;;;;;19.23;15.23;;;1.00;99.90;;;;;;5071659;28;20204;-65
2022/11/17 03:49:11;;;;;;;22.07;15.63;;;1.00;99.90;;;;;;5071786;28;20562;-66
2022/11/17 03:51:37;;;;;;;22.57;15.37;;;1.00;99.90;;;;;;5070909;28;20206;-66
2022/11/17 03:54:05;;;;;;;22.17;16.27;;;0.90;99.90;;;;;;5071441;28;20208;-66
2022/11/17 03:56:39;;;;;;;21.90;15.50;;;0.90;99.90;;;;;;5071986;28;20215;-66
2022/11/17 03:59:13;;;;;;;21.23;15.53;;;0.90;99.90;;;;;;5071628;28;20189;-65
2022/11/17 04:01:40;;;;;;;20.73;15.33;;;0.90;99.90;;;;;;5064347;28;20286;-66
2022/11/17 04:04:14;;;;;;;22.10;16.10;;;0.90;99.90;;;;;;5051694;28;20212;-66
2022/11/17 04:06:40;;;;;;;20.80;15.60;;;0.90;99.90;;;;;;5051724;28;20289;-65
2022/11/17 04:09:07;;;;;;;21.53;16.00;;;0.80;99.90;;;;;;5051455;28;20208;-65
2022/11/17 04:17:02;;;;;;;21.73;15.60;;;0.80;99.90;;;;;;5070946;28;20188;-66
2022/11/17 04:19:30;;;;;;;21.07;15.23;;;0.80;99.90;;;;;;5074832;28;20322;-66
2022/11/17 04:21:57;;;;;;;20.93;15.30;;;0.80;99.90;;;;;;5067151;28;20585;-66
2022/11/17 04:24:24;;;;;;;21.33;14.90;;;0.80;99.90;;;;;;5054855;28;20214;-66
2022/11/17 04:29:34;;;;;;;23.37;16.03;;;0.80;99.90;;;;;;5054508;28;20193;-66
2022/11/17 04:32:01;;;;;;;22.67;16.07;;;0.70;99.90;;;;;;5061037;28;20213;-66
2022/11/17 04:34:29;;;;;;;23.63;16.57;;;0.70;99.90;;;;;;5068094;28;20201;-67
2022/11/17 04:36:56;;;;;;;25.70;17.20;;;0.70;99.90;;;;;;5071014;28;20303;-66
2022/11/17 04:39:23;;;;;;;25.20;16.77;;;0.70;99.90;;;;;;5074710;28;20201;-66
2022/11/17 04:42:00;;;;;;;22.87;16.13;;;0.70;99.90;;;;;;5074329;28;20236;-66
2022/11/17 04:44:28;;;;;;;21.93;15.60;;;0.70;99.90;;;;;;5067815;28;20278;-65
2022/11/17 04:46:56;;;;;;;25.50;17.60;;;0.70;99.90;;;;;;5054225;28;20212;-65
2022/11/17 04:49:24;;;;;;;22.63;15.93;;;0.70;99.90;;;;;;5055077;28;20224;-66
2022/11/17 04:51:53;;;;;;;22.43;15.60;;;0.70;99.90;;;;;;5054655;28;20295;-67
2022/11/17 04:54:24;;;;;;;22.97;16.37;;;0.70;99.90;;;;;;5055398;28;20236;-66
2022/11/17 04:56:52;;;;;;;22.27;15.50;;;0.70;99.90;;;;;;5073906;28;20250;-65
2022/11/17 04:59:19;;;;;;;21.63;15.97;;;0.70;99.90;;;;;;5074238;28;20207;-64
2022/11/17 05:01:46;;;;;;;22.60;15.53;;;0.70;99.90;;;;;;5073800;28;20208;-64
2022/11/17 05:04:54;;;;;;;22.80;15.03;;;0.60;99.90;;;;;;5073119;28;20208;-64
2022/11/17 05:07:03;;;;;;;22.83;15.67;;;0.60;99.90;;;;;;5053184;28;20205;-64
2022/11/17 05:09:29;;;;;;;25.33;16.00;;;0.60;99.90;;;;;;5054112;28;20209;-64
2022/11/17 05:14:41;;;;;;;24.30;16.20;;;0.60;99.90;;;;;;5056584;28;20219;-63
2022/11/17 05:17:08;;;;;;;23.10;16.80;;;0.70;99.90;;;;;;5073621;28;20312;-64
2022/11/17 05:19:37;;;;;;;25.53;16.60;;;0.60;99.90;;;;;;5073854;28;20603;-63
2022/11/17 05:23:52;;;;;;;24.43;16.23;;;0.60;99.90;;;;;;5073540;28;20200;-64
2022/11/17 05:24:53;;;;;;;24.10;16.73;;;0.60;99.90;;;;;;5068136;28;20209;-65
2022/11/17 05:27:21;;;;;;;24.07;16.70;;;0.60;99.90;;;;;;5053537;28;20239;-64
2022/11/17 05:29:47;;;;;;;24.30;16.93;;;0.60;99.90;;;;;;5053685;28;20667;-64
2022/11/17 05:32:14;;;;;;;28.03;18.73;;;0.60;99.90;;;;;;5053347;28;20240;-64
2022/11/17 05:34:41;;;;;;;27.57;18.47;;;0.70;99.90;;;;;;5055295;28;21286;-63
2022/11/17 05:37:09;;;;;;;27.87;18.33;;;0.70;99.90;;;;;;5071238;28;20230;-63
2022/11/17 05:39:36;;;;;;;30.37;19.47;;;0.70;99.90;;;;;;5072694;28;20207;-65
2022/11/17 05:42:03;;;;;;;28.80;18.80;;;0.70;99.90;;;;;;5071937;28;20236;-64
2022/11/17 05:44:30;;;;;;;27.57;18.53;;;0.60;99.90;;;;;;5071244;28;20228;-64
2022/11/17 05:46:56;;;;;;;28.23;17.83;;;0.70;99.90;;;;;;5054411;28;20205;-64
2022/11/17 05:49:23;;;;;;;32.47;19.30;;;0.60;99.90;;;;;;5052205;28;20205;-64
2022/11/17 05:51:50;;;;;;;30.17;19.30;;;0.60;99.90;;;;;;5052265;28;20694;-64
2022/11/17 05:54:18;;;;;;;30.37;20.00;;;0.70;99.90;;;;;;5052786;28;20212;-63
2022/11/17 05:56:48;;;;;;;28.40;18.10;;;0.60;99.90;;;;;;5052445;28;20210;-64
2022/11/17 05:59:22;;;;;;;26.80;17.77;;;0.60;99.90;;;;;;5052873;28;20205;-63
2022/11/17 06:01:56;;;;;;;32.47;18.87;;;0.60;99.90;;;;;;5053194;28;20193;-64
2022/11/17 06:04:23;;;;;;;33.30;20.83;;;0.60;99.90;;;;;;5051560;28;20201;-64
2022/11/17 06:06:50;;;;;;;30.67;19.83;;;0.70;99.90;;;;;;5052561;28;20205;-64
2022/11/17 06:09:19;;;;;;;33.57;21.53;;;0.60;99.90;;;;;;5052875;28;20209;-65
2022/11/17 06:11:46;;;;;;;31.80;19.80;;;0.70;99.90;;;;;;5052818;28;20224;-65
2022/11/17 06:14:12;;;;;;;31.00;19.23;;;0.60;99.90;;;;;;5053436;28;20204;-64
2022/11/17 06:16:45;;;;;;;29.60;18.50;;;0.50;99.90;;;;;;5064058;28;20291;-65
2022/11/17 06:19:17;;;;;;;30.57;19.37;;;0.40;99.90;;;;;;5072735;28;20192;-64
2022/11/17 06:21:44;;;;;;;30.47;19.10;;;0.40;99.90;;;;;;5072481;28;20193;-62
2022/11/17 06:24:11;;;;;;;31.60;19.10;;;0.40;99.90;;;;;;5072405;28;20232;-64
2022/11/17 06:26:40;;;;;;;30.13;18.67;;;0.30;99.90;;;;;;5071039;28;20209;-63
2022/11/17 06:29:09;;;;;;;27.77;18.33;;;0.40;99.90;;;;;;5072033;28;20211;-64
2022/11/17 06:31:37;;;;;;;29.00;19.07;;;0.40;99.90;;;;;;5072536;28;20299;-65
2022/11/17 06:34:05;;;;;;;31.83;20.27;;;0.40;99.90;;;;;;5067341;28;20205;-64
2022/11/17 06:36:32;;;;;;;30.87;18.43;;;0.40;99.90;;;;;;5059950;28;20575;-65
2022/11/17 14:25:49;;;;;;;32.43;19.37;;;-0.60;99.90;;;;;;5112770;27;20918;-68
2022/11/17 14:28:17;;;;;;;30.60;19.53;;;-0.10;99.90;;;;;;5107146;27;20230;-68
2022/11/17 14:30:46;;;;;;;28.23;17.60;;;-0.10;99.90;;;;;;5109452;28;20229;-68
2022/11/17 14:33:13;;;;;;;28.20;17.93;;;0.00;99.90;;;;;;5104861;28;20657;-69
2022/11/17 14:35:40;;;;;;;25.60;16.97;;;0.00;99.90;;;;;;5089132;28;20204;-68
2022/11/17 14:38:09;;;;;;;27.80;17.50;;;0.00;99.90;;;;;;5112767;28;20290;-67
2022/11/17 14:40:36;;;;;;;26.57;17.40;;;0.00;99.90;;;;;;5130213;28;20206;-69
2022/11/17 14:43:05;;;;;;;25.93;17.57;;;0.00;99.90;;;;;;5118154;28;20640;-69
2022/11/17 14:45:34;;;;;;;25.80;17.43;;;0.00;99.90;;;;;;5117302;28;20690;-67
2022/11/17 14:48:01;;;;;;;26.93;18.00;;;0.00;99.90;;;;;;5129467;28;20215;-67
2022/11/17 14:50:28;;;;;;;28.70;17.53;;;0.10;99.90;;;;;;5115379;28;20586;-68
2022/11/17 14:52:55;;;;;;;28.30;17.57;;;0.10;99.90;;;;;;5126588;28;20199;-69
2022/11/17 14:55:22;;;;;;;29.20;17.63;;;0.10;99.90;;;;;;5112663;28;20200;-68
2022/11/17 14:57:49;;;;;;;22.53;16.17;;;0.10;99.90;;;;;;5108382;28;20210;-68
2022/11/17 15:00:18;;;;;;;25.43;16.90;;;0.10;99.90;;;;;;5108761;28;20199;-68
2022/11/17 15:02:46;;;;;;;25.50;16.50;;;0.10;99.90;;;;;;5105200;28;20572;-70
2022/11/17 15:05:13;;;;;;;27.93;17.93;;;0.00;99.90;;;;;;5106874;28;20232;-69
2022/11/17 15:07:40;;;;;;;26.97;17.07;;;0.00;99.90;;;;;;5088200;28;20211;-68
2022/11/17 15:10:09;;;;;;;29.80;18.40;;;0.10;99.90;;;;;;5096220;28;20200;-68
2022/11/17 15:12:36;;;;;;;28.97;18.23;;;0.10;99.90;;;;;;5109615;28;20574;-68
2022/11/17 15:15:03;;;;;;;28.47;17.37;;;0.10;99.90;;;;;;5109529;28;20203;-70
2022/11/17 15:17:32;;;;;;;25.80;17.47;;;0.10;99.90;;;;;;5105087;28;20207;-69
2022/11/17 15:19:58;;;;;;;26.20;16.80;;;0.10;99.90;;;;;;5105857;28;20663;-70
2022/11/17 15:22:25;;;;;;;29.33;17.30;;;0.10;99.90;;;;;;5110032;28;20214;-69
2022/11/17 15:24:52;;;;;;;29.27;17.33;;;0.10;99.90;;;;;;5106340;28;20327;-69
2022/11/17 15:27:19;;;;;;;27.10;17.50;;;0.00;99.90;;;;;;5095444;28;20295;-71
2022/11/17 15:29:46;;;;;;;30.47;17.47;;;0.10;99.90;;;;;;5095679;28;20290;-70
2022/11/17 15:32:12;;;;;;;26.33;16.83;;;0.10;99.90;;;;;;5094260;28;20294;-69
2022/11/17 15:34:41;;;;;;;26.33;15.97;;;0.10;99.90;;;;;;5095622;28;20196;-70
2022/11/17 15:37:07;;;;;;;28.33;18.30;;;0.10;99.90;;;;;;5077075;28;20205;-70
2022/11/17 15:39:34;;;;;;;26.43;17.13;;;0.10;99.90;;;;;;5082842;28;20311;-68
2022/11/17 15:42:01;;;;;;;30.10;17.77;;;0.10;99.90;;;;;;5096900;28;20200;-68
2022/11/17 15:44:29;;;;;;;27.50;17.27;;;0.10;99.90;;;;;;5091950;28;20230;-68
2022/11/17 15:46:56;;;;;;;26.43;16.07;;;0.10;99.90;;;;;;5096176;28;20210;-68
2022/11/17 15:49:22;;;;;;;25.00;15.30;;;0.10;99.90;;;;;;5094060;28;20286;-68
2022/11/17 15:51:51;;;;;;;27.13;16.60;;;0.00;99.90;;;;;;5095735;28;20211;-68
2022/11/17 15:54:17;;;;;;;24.03;15.40;;;0.00;99.90;;;;;;5093396;28;20200;-68
2022/11/17 15:56:44;;;;;;;24.30;15.60;;;0.00;99.90;;;;;;5094067;28;20211;-66
2022/11/17 15:59:11;;;;;;;25.00;15.63;;;-0.10;99.90;;;;;;5092735;28;20206;-67
2022/11/17 16:01:39;;;;;;;24.63;15.63;;;-0.10;99.90;;;;;;5093964;28;20658;-67
2022/11/17 16:04:07;;;;;;;26.27;15.90;;;0.00;99.90;;;;;;5093184;28;20224;-67
2022/11/17 16:06:35;;;;;;;27.70;16.77;;;0.00;99.90;;;;;;5088052;28;20210;-67
2022/11/17 16:09:05;;;;;;;26.87;16.57;;;-0.10;99.90;;;;;;5091968;28;20253;-67
2022/11/17 16:11:32;;;;;;;24.37;15.70;;;-0.10;99.90;;;;;;5093226;28;20208;-69
2022/11/17 16:14:00;;;;;;;26.93;16.40;;;-0.10;99.90;;;;;;5087238;28;20203;-67
2022/11/17 16:16:29;;;;;;;24.83;16.03;;;-0.20;99.90;;;;;;5092061;28;20215;-67
2022/11/17 16:18:56;;;;;;;29.10;16.73;;;-0.10;99.90;;;;;;5091013;28;20197;-67
2022/11/17 16:21:23;;;;;;;24.30;15.37;;;-0.10;99.90;;;;;;5091996;28;20207;-67
2022/11/17 16:23:53;;;;;;;25.60;16.20;;;-0.10;99.90;;;;;;5092929;28;20242;-68
2022/11/17 16:26:23;;;;;;;26.23;17.33;;;-0.10;99.90;;;;;;5092426;28;20206;-67
2022/11/17 16:28:55;;;;;;;30.10;16.80;;;-0.10;99.90;;;;;;5093672;28;20568;-66
2022/11/17 16:31:24;;;;;;;25.70;16.17;;;-0.10;99.90;;;;;;5093704;28;20198;-67
2022/11/17 16:33:52;;;;;;;24.87;15.57;;;-0.10;99.90;;;;;;5093511;28;20211;-67
2022/11/17 16:36:20;;;;;;;26.93;16.67;;;-0.10;99.90;;;;;;5087773;28;20196;-66
2022/11/17 16:38:51;;;;;;;28.30;17.33;;;-0.10;99.90;;;;;;5093178;28;20211;-67
2022/11/17 16:41:18;;;;;;;25.13;16.40;;;-0.10;99.90;;;;;;5093925;28;20188;-67
2022/11/17 16:43:46;;;;;;;27.57;16.33;;;-0.10;99.90;;;;;;5093426;28;20234;-68
2022/11/17 16:46:17;;;;;;;32.40;20.70;;;-0.10;99.90;;;;;;5093469;28;20204;-67
2022/11/17 16:48:45;;;;;;;29.60;17.27;;;-0.20;99.90;;;;;;5093771;28;20192;-68
2022/11/17 16:51:12;;;;;;;27.43;16.97;;;-0.20;99.90;;;;;;5093642;28;20204;-67
2022/11/17 16:53:38;;;;;;;26.27;15.90;;;-0.20;99.90;;;;;;5093383;28;20204;-67
2022/11/17 16:56:06;;;;;;;24.57;15.00;;;-0.20;99.90;;;;;;5093492;28;20219;-67
2022/11/17 16:58:34;;;;;;;24.93;16.53;;;-0.20;99.90;;;;;;5093298;28;20200;-67
2022/11/17 17:01:11;;;;;;;28.63;16.57;;;-0.20;99.90;;;;;;5093058;28;20210;-68
2022/11/17 17:03:38;;;;;;;25.73;15.50;;;-0.20;99.90;;;;;;5093524;28;20239;-68
2022/11/17 17:06:06;;;;;;;28.50;18.53;;;-0.20;99.90;;;;;;5093373;28;20223;-69
2022/11/17 17:08:32;;;;;;;25.43;16.00;;;-0.20;99.90;;;;;;5093872;28;20628;-69
2022/11/17 17:11:02;;;;;;;27.43;16.03;;;-0.20;99.90;;;;;;5093521;28;20662;-69
2022/11/17 17:13:29;;;;;;;25.20;15.93;;;-0.20;99.90;;;;;;5093395;28;20569;-69
2022/11/17 17:15:56;;;;;;;27.17;16.90;;;-0.20;99.90;;;;;;5093258;28;20560;-70
2022/11/17 17:18:24;;;;;;;26.83;16.77;;;-0.20;99.90;;;;;;5092545;28;20210;-67
2022/11/17 17:20:51;;;;;;;25.93;16.30;;;-0.20;99.90;;;;;;5093168;28;20204;-68
2022/11/17 17:23:18;;;;;;;27.47;15.90;;;-0.20;99.90;;;;;;5093074;28;20661;-69
2022/11/17 17:25:45;;;;;;;25.03;15.47;;;-0.20;99.90;;;;;;5092903;28;20238;-68
2022/11/17 17:28:11;;;;;;;21.87;14.57;;;-0.20;99.90;;;;;;5092891;28;20204;-68
2022/11/17 17:30:38;;;;;;;24.47;15.43;;;-0.30;99.90;;;;;;5092675;28;20210;-69
2022/11/17 17:33:05;;;;;;;23.67;14.47;;;-0.30;99.90;;;;;;5092671;28;20673;-68
2022/11/17 17:35:34;;;;;;;24.53;14.93;;;-0.30;99.90;;;;;;5092901;28;20553;-66
2022/11/17 17:38:01;;;;;;;22.97;14.60;;;-0.30;99.90;;;;;;5092543;28;20203;-69
2022/11/17 17:40:28;;;;;;;23.77;15.07;;;-0.30;99.90;;;;;;5092922;28;20200;-69
2022/11/17 17:42:55;;;;;;;24.80;14.93;;;-0.30;99.90;;;;;;5092292;28;20218;-67
2022/11/17 17:45:21;;;;;;;22.67;14.80;;;-0.40;99.90;;;;;;5092721;28;20307;-67
2022/11/17 17:47:48;;;;;;;22.97;14.43;;;-0.40;99.90;;;;;;5091981;28;20546;-68
2022/11/17 17:50:15;;;;;;;23.97;15.13;;;-0.40;99.90;;;;;;5092518;28;20569;-67
2022/11/17 17:52:44;;;;;;;22.73;15.13;;;-0.40;99.90;;;;;;5092660;28;20225;-66
2022/11/17 17:55:11;;;;;;;24.70;15.17;;;-0.30;99.90;;;;;;5092507;28;20207;-68
2022/11/17 17:57:39;;;;;;;26.73;15.17;;;-0.40;99.90;;;;;;5092543;28;20204;-68
2022/11/17 18:00:07;;;;;;;26.80;14.63;;;-0.30;99.90;;;;;;5092495;28;20208;-69
2022/11/17 18:02:35;;;;;;;22.00;14.93;;;-0.40;99.90;;;;;;5092143;28;20210;-67
2022/11/17 18:05:03;;;;;;;25.63;14.33;;;-0.30;99.90;;;;;;5092173;28;20684;-67
2022/11/17 18:07:30;;;;;;;24.13;15.40;;;-0.30;99.90;;;;;;5092616;28;20680;-69
2022/11/17 18:09:58;;;;;;;26.73;15.73;;;-0.30;99.90;;;;;;5092184;28;20573;-67
2022/11/17 22:39:17;;;;;;;18.00;12.73;;;-1.50;99.90;;;;;;5087006;27;20545;-70
2022/11/17 22:44:13;;;;;;;14.33;11.43;;;-1.40;99.90;;;;;;5006182;28;20234;-66
2022/11/17 22:46:41;;;;;;;19.03;12.07;;;-1.30;99.90;;;;;;5007626;28;20207;-65
2022/11/17 22:49:08;;;;;;;15.33;11.30;;;-1.30;99.90;;;;;;5009321;28;20199;-66
2022/11/17 22:54:21;;;;;;;15.90;11.27;;;-1.20;99.90;;;;;;4997542;28;20518;-66
2022/11/17 22:56:47;;;;;;;18.27;12.10;;;-1.20;99.90;;;;;;5009601;28;20600;-65
2022/11/17 22:59:15;;;;;;;16.27;11.17;;;-1.10;99.90;;;;;;5009599;28;20207;-66
2022/11/17 23:01:42;;;;;;;14.70;10.83;;;-1.00;99.90;;;;;;5009440;28;20206;-66
2022/11/17 23:04:08;;;;;;;15.23;11.73;;;-1.00;99.90;;;;;;5008992;28;20211;-66
2022/11/17 23:06:35;;;;;;;16.33;10.70;;;-1.00;99.90;;;;;;5008985;28;20207;-67
2022/11/17 23:09:02;;;;;;;15.30;11.27;;;-0.90;99.90;;;;;;5008769;28;20211;-67
2022/11/17 23:11:30;;;;;;;16.30;10.60;;;-0.90;99.90;;;;;;5009113;28;20211;-66
2022/11/17 23:13:57;;;;;;;17.87;11.43;;;-1.00;99.90;;;;;;5008930;28;20207;-66
2022/11/17 23:16:24;;;;;;;13.87;10.43;;;-1.00;99.90;;;;;;5008976;28;20203;-68
2022/11/17 23:18:52;;;;;;;17.67;11.17;;;-0.90;99.90;;;;;;5008883;28;20231;-67
2022/11/17 23:21:19;;;;;;;16.70;11.20;;;-0.90;99.90;;;;;;4992736;28;20208;-66
2022/11/17 23:23:46;;;;;;;16.70;11.33;;;-0.90;99.90;;;;;;4995579;28;20249;-65
2022/11/17 23:26:13;;;;;;;13.60;9.77;;;-0.90;99.90;;;;;;4989196;28;20242;-66
2022/11/17 23:28:42;;;;;;;16.03;11.33;;;-0.90;99.90;;;;;;4994486;28;20209;-67
2022/11/17 23:31:11;;;;;;;13.03;9.73;;;-0.90;99.90;;;;;;5008527;28;20217;-66
2022/11/17 23:33:40;;;;;;;15.43;9.77;;;-0.90;99.90;;;;;;5008705;28;20666;-66
2022/11/17 23:36:12;;;;;;;14.43;10.43;;;-0.90;99.90;;;;;;5008281;28;20214;-64
2022/11/17 23:38:38;;;;;;;13.83;10.17;;;-0.90;99.90;;;;;;5008953;28;20215;-65
2022/11/17 23:41:08;;;;;;;15.47;10.40;;;-1.00;99.90;;;;;;5008642;28;20207;-65
2022/11/17 23:43:35;;;;;;;15.37;9.73;;;-1.00;99.90;;;;;;5008190;28;20234;-67
2022/11/17 23:46:05;;;;;;;14.77;9.73;;;-1.00;99.90;;;;;;5008157;28;20223;-66
2022/11/17 23:48:32;;;;;;;16.47;10.27;;;-1.10;99.90;;;;;;5006936;28;20187;-67
2022/11/17 23:51:03;;;;;;;13.43;9.40;;;-1.10;99.90;;;;;;4994963;28;20210;-66
2022/11/17 23:53:30;;;;;;;14.00;10.37;;;-1.10;99.90;;;;;;4995260;28;20195;-65
2022/11/17 23:55:57;;;;;;;20.47;14.10;;;-1.10;99.90;;;;;;4995346;28;20572;-66
2022/11/17 23:58:24;;;;;;;14.97;10.63;;;-1.10;99.90;;;;;;4994949;28;20227;-65
